createdAt,value
2022-10-11T06:14:21.135Z,15.39
2022-10-11T06:16:53.541Z,15.37
2022-10-11T06:26:37.534Z,15.36
2022-10-11T07:02:38.797Z,15.27
2022-10-11T07:06:00.195Z,15.28
2022-10-11T07:35:08.945Z,15.23
2022-10-11T07:54:47.144Z,15.20
2022-10-11T07:57:17.187Z,15.22
2022-10-11T07:59:50.344Z,15.20
2022-10-11T08:02:23.671Z,15.17
2022-10-11T08:04:57.359Z,15.17
2022-10-11T08:08:28.813Z,15.18
2022-10-11T08:33:54.934Z,15.34
2022-10-11T08:36:26.388Z,15.39
2022-10-11T08:39:04.431Z,15.44
2022-10-11T08:41:46.565Z,15.48
2022-10-11T08:44:37.330Z,15.45
2022-10-11T08:47:40.453Z,15.45
2022-10-11T08:50:21.518Z,15.45
2022-10-11T08:52:56.182Z,15.45
2022-10-11T08:55:34.950Z,15.44
2022-10-11T08:58:05.528Z,15.43
2022-10-11T09:00:40.284Z,15.43
2022-10-11T09:03:23.332Z,15.47
2022-10-11T09:06:05.876Z,15.52
2022-10-11T09:08:49.635Z,15.54
2022-10-11T09:11:28.863Z,15.53
2022-10-11T09:14:29.448Z,15.50
2022-10-11T09:17:08.030Z,15.49
2022-10-11T09:20:10.323Z,15.52
2022-10-11T09:22:54.651Z,15.53
2022-10-11T09:25:39.564Z,15.56
2022-10-11T09:28:22.158Z,15.56
2022-10-11T09:30:57.020Z,15.54
2022-10-11T09:33:36.147Z,15.57
2022-10-11T09:36:22.529Z,15.60
2022-10-11T09:39:06.535Z,15.62
2022-10-11T09:41:46.710Z,15.62
2022-10-11T09:44:27.884Z,15.64
2022-10-11T09:47:05.270Z,15.68
2022-10-11T09:49:41.742Z,15.67
2022-10-11T09:52:20.884Z,15.66
2022-10-11T10:13:51.458Z,15.95
2022-10-11T10:16:29.048Z,15.98
2022-10-11T10:19:03.682Z,16.01
2022-10-11T10:21:39.431Z,16.03
2022-10-11T11:48:50.675Z,16.32
2022-10-11T11:51:27.799Z,16.34
2022-10-11T11:54:10.416Z,16.34
2022-10-11T11:57:01.254Z,16.36
2022-10-11T11:59:46.193Z,16.36
2022-10-11T12:02:36.956Z,16.36
2022-10-11T12:05:20.842Z,16.35
2022-10-11T12:08:06.882Z,16.37
2022-10-11T12:10:45.510Z,16.38
2022-10-11T12:13:32.590Z,16.39
2022-10-11T12:49:25.720Z,16.86
2022-10-11T12:58:41.807Z,16.94
2022-10-11T20:41:06.866Z,15.05
2022-10-11T20:43:37.714Z,15.08
2022-10-11T20:46:27.671Z,15.09
2022-10-11T20:49:06.484Z,15.06
2022-10-11T20:51:36.180Z,15.05
2022-10-11T20:54:13.437Z,15.06
2022-10-11T20:56:43.082Z,15.04
2022-10-11T20:59:12.574Z,15.03
2022-10-11T21:01:49.221Z,15.04
2022-10-11T21:04:22.284Z,15.02
2022-10-11T21:06:56.406Z,15.04
2022-10-11T21:09:40.754Z,15.07
2022-10-11T21:12:20.350Z,15.08
2022-10-11T21:14:52.076Z,15.06
2022-10-11T21:17:20.341Z,15.03
2022-10-11T21:19:49.737Z,15.00
2022-10-11T21:22:20.076Z,14.99
2022-10-11T21:24:52.860Z,14.97
2022-10-11T21:27:22.702Z,14.94
2022-10-11T21:29:50.730Z,14.95
2022-10-11T21:32:18.805Z,14.93
2022-10-11T21:34:47.065Z,14.92
2022-10-11T21:37:15.199Z,14.87
2022-10-11T21:39:43.188Z,14.84
2022-10-11T21:42:13.995Z,14.88
2022-10-11T21:44:43.802Z,14.91
2022-10-11T21:47:15.040Z,14.92
2022-10-11T21:49:43.496Z,14.92
2022-10-11T21:52:11.438Z,14.92
2022-10-11T21:54:39.359Z,14.93
2022-10-11T21:57:07.630Z,14.94
2022-10-11T21:59:35.322Z,14.93
2022-10-11T22:02:07.434Z,14.92
2022-10-11T22:04:35.720Z,14.90
2022-10-11T22:07:03.456Z,14.86
2022-10-11T22:09:34.897Z,14.87
2022-10-11T22:12:02.955Z,14.88
2022-10-11T22:14:31.165Z,14.87
2022-10-11T22:16:58.903Z,14.88
2022-10-11T22:19:28.069Z,14.86
2022-10-11T22:21:55.834Z,14.81
2022-10-11T22:24:23.532Z,14.76
2022-10-11T22:26:51.126Z,14.73
2022-10-11T22:29:18.853Z,14.70
2022-10-11T22:31:46.864Z,14.73
2022-10-11T22:34:14.520Z,14.74
2022-10-11T22:36:43.605Z,14.73
2022-10-11T22:39:11.425Z,14.70
2022-10-11T22:41:39.107Z,14.69
2022-10-11T22:44:07.069Z,14.65
2022-10-11T22:46:34.942Z,14.65
2022-10-11T22:49:02.873Z,14.66
2022-10-11T22:51:30.563Z,14.65
2022-10-11T22:54:02.804Z,14.66
2022-10-11T22:56:30.550Z,14.68
2022-10-11T22:59:00.035Z,14.71
2022-10-11T23:01:27.716Z,14.68
2022-10-11T23:03:55.442Z,14.65
2022-10-11T23:06:23.189Z,14.62
2022-10-11T23:08:50.975Z,14.65
2022-10-11T23:11:19.987Z,14.68
2022-10-11T23:13:47.795Z,14.69
2022-10-11T23:16:15.696Z,14.71
2022-10-11T23:18:43.707Z,14.70
2022-10-11T23:21:11.705Z,14.69
2022-10-11T23:23:39.962Z,14.69
2022-10-11T23:26:09.722Z,14.68
2022-10-11T23:28:38.903Z,14.68
2022-10-11T23:31:11.415Z,14.67
2022-10-11T23:33:39.214Z,14.67
2022-10-11T23:36:07.686Z,14.60
2022-10-11T23:38:35.433Z,14.56
2022-10-11T23:41:10.226Z,14.54
2022-10-11T23:43:49.659Z,14.50
2022-10-11T23:46:34.874Z,14.47
2022-10-11T23:49:09.276Z,14.43
2022-10-11T23:51:40.907Z,14.42
2022-10-11T23:54:17.901Z,14.45
2022-10-11T23:56:53.278Z,14.46
2022-10-11T23:59:36.707Z,14.45
